Flight Track Log - Related Links

Times and Time Zones

All times are in EDT time to prevent confusion due to time zone crossing. See the SWA2147 flight status page for this flight to view local times or setup timezone preferences in your user account.

Time Position Orientation Groundspeed Altitude Reporting Facility
EDT Latitude Longitude Course Direction KTS MPH feet Rate Location/Type
Thu 05:52:36 PM 33.4333 -111.9833 90° East 166 191 2,000  Level Phoenix TRACON
Thu 05:53:31 PM 33.4333 -111.9333 90° East 192 221 3,600 1,636 Climbing Phoenix TRACON
Thu 05:54:15 PM 33.4306 -111.8864 94° East 212 244 4,700 2,377 Climbing Albuquerque Center
Thu 05:55:17 PM 33.4667 -111.7936 65° Northeast 263 303 7,800 2,806 Climbing Albuquerque Center
Thu 05:56:19 PM 33.5092 -111.7178 56° Northeast 276 318 10,500 1,984 Climbing Albuquerque Center
Thu 05:57:21 PM 33.5544 -111.6258 59° Northeast 327 376 11,900 1,951 Climbing Albuquerque Center
Thu 05:58:22 PM 33.5944 -111.5206 65° Northeast 349 402 14,500 2,293 Climbing Albuquerque Center
Thu 05:59:24 PM 33.6358 -111.4083 66° East 367 422 16,600 2,081 Climbing Albuquerque Center
Thu 06:00:26 PM 33.6794 -111.2911 66° East 386 444 18,800 2,244 Climbing Albuquerque Center
Thu 06:01:27 PM 33.7331 -111.1444 66° East 403 464 21,200 2,098 Climbing Albuquerque Center
Thu 06:02:29 PM 33.7767 -111.0169 68° East 413 475 23,100 1,645 Climbing Albuquerque Center
Thu 06:03:31 PM 33.8231 -110.8856 67° East 425 489 24,600 1,355 Climbing Albuquerque Center
Thu 06:04:33 PM 33.8714 -110.7486 67° East 439 505 25,900 1,306 Climbing Albuquerque Center
Thu 06:05:35 PM 33.9222 -110.6064 67° East 456 525 27,300 1,317 Climbing Albuquerque Center
Thu 06:06:36 PM 33.9731 -110.4633 67° East 464 534 28,600 1,366 Climbing Albuquerque Center
Thu 06:07:38 PM 34.0319 -110.2928 67° East 473 544 30,100 1,306 Climbing Albuquerque Center
Thu 06:08:40 PM 34.0842 -110.1436 67° East 482 555 31,300 1,210 Climbing Albuquerque Center
Thu 06:09:42 PM 34.1361 -109.9925 67° East 482 555 32,600 1,258 Climbing Albuquerque Center
Thu 06:10:44 PM 34.1925 -109.8269 68° East 479 551 33,900 1,065 Climbing Albuquerque Center
Thu 06:11:46 PM 34.2425 -109.6850 67° East 479 551 34,800 537 Climbing Albuquerque Center
Thu 06:12:47 PM 34.2981 -109.5183 68° East 480 552 35,000 98 Climbing Albuquerque Center
Thu 06:13:49 PM 34.3472 -109.3750 67° East 481 554 35,000  Level Albuquerque Center
Thu 06:14:51 PM 34.4031 -109.2092 68° East 479 551 35,000  Level Albuquerque Center
Thu 06:15:53 PM 34.4478 -109.0619 70° East 482 555 35,000  Level Albuquerque Center
Thu 06:16:55 PM 34.4889 -108.9139 71° East 484 557 35,000  Level Albuquerque Center
Thu 06:17:57 PM 34.5361 -108.7422 71° East 483 556 35,000  Level Albuquerque Center
Thu 06:18:58 PM 34.5764 -108.5956 72° East 482 555 35,000  Level Albuquerque Center
Thu 06:20:00 PM 34.6203 -108.4275 72° East 481 554 35,000  Level Albuquerque Center
Thu 06:21:02 PM 34.6614 -108.2764 72° East 476 548 35,000  Level Albuquerque Center
Thu 06:22:04 PM 34.7025 -108.1242 72° East 475 547 35,000  Level Albuquerque Center
Thu 06:23:06 PM 34.7436 -107.9708 72° East 476 548 35,000  Level Albuquerque Center
Thu 06:24:08 PM 34.7842 -107.8186 72° East 474 545 35,000  Level Albuquerque Center
Thu 06:25:09 PM 34.8322 -107.6361 72° East 475 547 35,000  Level Albuquerque Center
Thu 06:26:11 PM 34.8725 -107.4836 72° East 473 544 35,000  Level Albuquerque Center
Thu 06:27:13 PM 34.9119 -107.3306 73° East 474 545 35,000  Level Albuquerque Center
Thu 06:28:15 PM 34.9572 -107.1569 72° East 478 550 35,000  Level Albuquerque Center
Thu 06:29:17 PM 34.9953 -107.0094 72° East 477 549 35,000  Level Albuquerque Center
Thu 06:30:19 PM 35.0319 -106.8625 73° East 475 547 35,000  Level Albuquerque Center
Thu 06:31:21 PM 35.0858 -106.7014 68° East 463 533 35,000  Level Albuquerque Center
Thu 06:32:22 PM 35.1400 -106.5614 65° Northeast 473 544 35,000  Level Albuquerque Center
Thu 06:33:24 PM 35.1925 -106.4158 66° East 472 543 35,000  Level Albuquerque Center
Thu 06:34:26 PM 35.2467 -106.2717 65° Northeast 469 540 35,000  Level Albuquerque Center
Thu 06:35:28 PM 35.3075 -106.1039 66° East 461 531 35,000  Level Albuquerque Center
Thu 06:36:30 PM 35.3608 -105.9556 66° East 470 541 35,000  Level Albuquerque Center
Thu 06:37:32 PM 35.4194 -105.8058 64° Northeast 482 555 35,000  Level Albuquerque Center
Thu 06:38:33 PM 35.4728 -105.6536 67° East 480 552 35,000  Level Albuquerque Center
Thu 06:39:35 PM 35.5264 -105.5014 67° East 479 551 35,000  Level Albuquerque Center
Thu 06:40:37 PM 35.5794 -105.3492 67° East 479 551 35,000  Level Albuquerque Center
Thu 06:41:39 PM 35.6436 -105.1703 66° East 484 557 35,000  Level Albuquerque Center
Thu 06:42:41 PM 35.7131 -105.0328 58° Northeast 466 536 35,000  Level Albuquerque Center
Thu 06:43:42 PM 35.7872 -104.8978 56° Northeast 467 537 35,000  Level Albuquerque Center
Thu 06:44:44 PM 35.8589 -104.7633 57° Northeast 465 535 35,000  Level Albuquerque Center
Thu 06:45:46 PM 35.9325 -104.6272 56° Northeast 468 539 35,000  Level Albuquerque Center
Thu 06:46:47 PM 36.0044 -104.4936 56° Northeast 464 534 35,000  Level Albuquerque Center
Thu 06:47:49 PM 36.0769 -104.3581 56° Northeast 465 535 35,000  Level Albuquerque Center
Thu 06:48:51 PM 36.1506 -104.2206 56° Northeast 470 541 35,000  Level Albuquerque Center
Thu 06:49:52 PM 36.2244 -104.0844 56° Northeast 471 542 35,000  Level Albuquerque Center
Thu 06:50:54 PM 36.2950 -103.9508 57° Northeast 463 533 35,000  Level Albuquerque Center
Thu 06:51:56 PM 36.3672 -103.8172 56° Northeast 461 531 35,000  Level Albuquerque Center
Thu 06:52:57 PM 36.4383 -103.6819 57° Northeast 462 532 35,000  Level Albuquerque Center
Thu 06:53:59 PM 36.5211 -103.5239 57° Northeast 462 532 35,000  Level Albuquerque Center
Thu 06:55:00 PM 36.5900 -103.3869 58° Northeast 463 533 35,000  Level Albuquerque Center
Thu 06:56:02 PM 36.6569 -103.2578 57° Northeast 464 534 35,000  Level Albuquerque Center
Thu 06:57:04 PM 36.7350 -103.1086 57° Northeast 462 532 35,000  Level Albuquerque Center
Thu 06:58:05 PM 36.8011 -102.9806 57° Northeast 461 531 35,000  Level Albuquerque Center
Thu 06:59:07 PM 36.8664 -102.8517 58° Northeast 461 531 35,000  Level Albuquerque Center
Thu 07:00:08 PM 36.9456 -102.6997 57° Northeast 467 537 35,000  Level Albuquerque Center
Thu 07:01:10 PM 37.0111 -102.5700 58° Northeast 463 533 35,000  Level Albuquerque Center
Thu 07:02:12 PM 37.0819 -102.4297 58° Northeast 460 529 35,000  Level Albuquerque Center
Thu 07:03:13 PM 37.1522 -102.2897 58° Northeast 459 528 35,000  Level Albuquerque Center
Thu 07:04:15 PM 37.2228 -102.1492 58° Northeast 458 527 35,000  Level Albuquerque Center
Thu 07:05:16 PM 37.2883 -102.0194 58° Northeast 459 528 35,000  Level Albuquerque Center
Thu 07:06:21 PM 37.3600 -101.8678 59° Northeast 455 524 35,000  Level Kansas City Center
Thu 07:07:23 PM 37.4344 -101.7183 58° Northeast 452 520 35,000  Level Kansas City Center
Thu 07:08:25 PM 37.4989 -101.5886 58° Northeast 456 525 35,000  Level Kansas City Center
Thu 07:09:27 PM 37.5753 -101.4342 58° Northeast 462 532 35,000  Level Kansas City Center
Thu 07:10:29 PM 37.6394 -101.3008 59° Northeast 463 533 35,000  Level Kansas City Center
Thu 07:11:30 PM 37.7056 -101.1672 58° Northeast 466 536 35,000  Level Kansas City Center
Thu 07:12:32 PM 37.7828 -101.0067 59° Northeast 470 541 35,000  Level Kansas City Center
Thu 07:13:34 PM 37.8506 -100.8681 58° Northeast 474 545 35,000  Level Kansas City Center
Thu 07:14:36 PM 37.9167 -100.7278 59° Northeast 479 551 35,000  Level Kansas City Center
Thu 07:15:38 PM 37.9769 -100.5525 66° East 484 557 35,000  Level Kansas City Center
Thu 07:16:40 PM 38.0278 -100.4019 67° East 484 557 35,000  Level Kansas City Center
Thu 07:17:42 PM 38.0875 -100.2242 67° East 488 562 35,000  Level Kansas City Center
Thu 07:18:44 PM 38.1364 -100.0733 68° East 484 557 35,000  Level Kansas City Center
Thu 07:19:46 PM 38.1956 -99.8950 67° East 487 560 35,000  Level Kansas City Center
Thu 07:20:48 PM 38.2461 -99.7436 67° East 486 559 35,000  Level Kansas City Center
Thu 07:21:49 PM 38.3053 -99.5658 67° East 489 563 35,000  Level Kansas City Center
Thu 07:22:51 PM 38.3561 -99.4067 68° East 490 564 35,000  Level Kansas City Center
Thu 07:23:53 PM 38.4092 -99.2458 67° East 491 565 35,000  Level Kansas City Center
Thu 07:24:55 PM 38.4625 -99.0844 67° East 492 566 35,000  Level Kansas City Center
Thu 07:25:57 PM 38.5136 -98.9222 68° East 492 566 35,000  Level Kansas City Center
Thu 07:26:59 PM 38.5689 -98.7586 67° East 499 574 35,000  Level Kansas City Center
Thu 07:28:01 PM 38.6206 -98.5972 68° East 490 564 35,000  Level Kansas City Center
Thu 07:29:03 PM 38.6703 -98.4358 68° East 487 560 35,000  Level Kansas City Center
Thu 07:30:05 PM 38.7319 -98.2431 68° East 485 558 35,000  Level Kansas City Center
Thu 07:31:07 PM 38.7819 -98.0844 68° East 480 552 35,000  Level Kansas City Center
Thu 07:32:09 PM 38.8314 -97.9261 68° East 477 549 35,000  Level Kansas City Center
Thu 07:33:11 PM 38.8781 -97.7742 68° East 474 545 35,000  Level Kansas City Center
Thu 07:34:12 PM 38.9311 -97.5972 69° East 475 547 35,000  Level Kansas City Center
Thu 07:35:14 PM 38.9739 -97.4400 71° East 485 558 35,000  Level Kansas City Center
Thu 07:36:16 PM 39.0217 -97.2592 71° East 479 551 35,000  Level Kansas City Center
Thu 07:37:18 PM 39.0625 -97.1039 71° East 477 549 35,000  Level Kansas City Center
Thu 07:38:20 PM 39.1086 -96.9206 72° East 482 555 35,000  Level Kansas City Center
Thu 07:39:22 PM 39.1514 -96.7633 71° East 483 556 35,000  Level Kansas City Center
Thu 07:40:24 PM 39.1906 -96.6022 73° East 490 564 35,000  Level Kansas City Center
Thu 07:41:25 PM 39.2378 -96.4178 72° East 485 558 35,000  Level Kansas City Center
Thu 07:42:27 PM 39.2786 -96.2597 71° East 488 562 35,000  Level Kansas City Center
Thu 07:43:29 PM 39.3244 -96.0728 72° East 484 557 35,000  Level Kansas City Center
Thu 07:44:31 PM 39.3647 -95.9133 72° East 486 559 35,000  Level Kansas City Center
Thu 07:45:33 PM 39.4103 -95.7264 72° East 488 562 35,000  Level Kansas City Center
Thu 07:46:34 PM 39.4503 -95.5650 72° East 488 562 35,000  Level Kansas City Center
Thu 07:47:36 PM 39.4961 -95.3783 72° East 490 564 35,000  Level Kansas City Center
Thu 07:48:38 PM 39.5364 -95.2114 73° East 485 558 35,000  Level Kansas City Center
Thu 07:49:40 PM 39.5742 -95.0547 73° East 482 555 35,000  Level Kansas City Center
Thu 07:50:42 PM 39.6117 -94.8950 73° East 481 554 35,000  Level Kansas City Center
Thu 07:51:43 PM 39.6558 -94.7106 73° East 478 550 35,000  Level Kansas City Center
Thu 07:52:45 PM 39.6933 -94.5533 73° East 476 548 35,000  Level Kansas City Center
Thu 07:53:47 PM 39.7356 -94.3706 73° East 474 545 35,000  Level Kansas City Center
Thu 07:54:49 PM 39.7722 -94.2147 73° East 471 542 35,000  Level Kansas City Center
Thu 07:55:50 PM 39.8131 -94.0369 73° East 476 548 35,000  Level Kansas City Center
Thu 07:56:52 PM 39.8492 -93.8728 74° East 476 548 35,000  Level Kansas City Center
Thu 07:57:54 PM 39.8858 -93.7106 74° East 470 541 35,000  Level Kansas City Center
Thu 07:58:55 PM 39.9261 -93.5481 72° East 474 545 35,000  Level Kansas City Center
Thu 07:59:57 PM 39.9608 -93.3844 74° East 474 545 35,000  Level Kansas City Center
Thu 08:00:59 PM 40.0033 -93.1886 74° East 472 543 35,000  Level Kansas City Center
Thu 08:02:01 PM 40.0403 -93.0264 73° East 471 542 35,000 -341 Level Kansas City Center
Thu 08:03:02 PM 40.0786 -92.8492 74° East 473 544 34,300 -829 Descending Kansas City Center
Thu 08:04:04 PM 40.1119 -92.6917 74° East 470 541 33,300 -1,016 Descending Kansas City Center
Thu 08:05:06 PM 40.1500 -92.5092 75° East 465 535 32,200 -1,016 Descending Kansas City Center
Thu 08:06:08 PM 40.1844 -92.3567 73° East 456 525 31,200 -585 Descending Kansas City Center
Thu 08:07:09 PM 40.2164 -92.1958 75° East 459 528 31,000 -98 Descending Kansas City Center
Thu 08:08:11 PM 40.2481 -92.0361 75° East 459 528 31,000  Level Kansas City Center
Thu 08:09:13 PM 40.2808 -91.8772 75° East 458 527 31,000  Level Kansas City Center
Thu 08:10:15 PM 40.3183 -91.6858 76° East 456 525 31,000  Level Kansas City Center
Thu 08:11:16 PM 40.3506 -91.5253 75° East 458 527 31,000  Level Kansas City Center
Thu 08:12:18 PM 40.3811 -91.3661 76° East 456 525 31,000  Level Kansas City Center
Thu 08:13:20 PM 40.4119 -91.2039 76° East 457 526 31,000  Level Kansas City Center
Thu 08:14:22 PM 40.4450 -91.0397 75° East 462 532 31,000  Level Kansas City Center
Thu 08:15:23 PM 40.4775 -90.8792 75° East 458 527 31,000 -341 Level Chicago Center
Thu 08:16:25 PM 40.5089 -90.7197 75° East 451 519 30,300 -968 Descending Chicago Center
Thu 08:17:27 PM 40.5431 -90.5339 76° East 436 502 29,000 -1,065 Descending Chicago Center
Thu 08:18:29 PM 40.5725 -90.3781 76° East 440 506 28,100 -912 Descending Chicago Center
Thu 08:19:32 PM 40.6008 -90.2214 77° East 439 505 27,100 -960 Descending Chicago Center
Thu 08:20:34 PM 40.6267 -90.0708 77° East 428 493 26,100 -968 Descending Chicago Center
Thu 08:21:36 PM 40.6531 -89.9217 77° East 423 487 25,100 -1,355 Descending Chicago Center
Thu 08:22:38 PM 40.6903 -89.7483 74° East 414 476 23,300 -1,790 Descending Chicago Center
Thu 08:23:40 PM 40.7542 -89.6217 56° Northeast 411 473 21,400 -1,694 Descending Chicago Center
Thu 08:24:42 PM 40.8044 -89.5056 60° Northeast 401 461 19,800 -1,645 Descending Chicago Center
Thu 08:25:44 PM 40.8581 -89.3806 60° Northeast 394 453 18,000 -1,355 Descending Chicago Center
Thu 08:26:46 PM 40.9189 -89.2364 61° Northeast 378 435 17,000 -968 Descending Chicago Center
Thu 08:27:48 PM 40.9561 -89.1164 68° East 358 412 16,000 -968 Descending Chicago Center
Thu 08:28:50 PM 41.0108 -89.0000 58° Northeast 352 405 15,000 -1,258 Descending Chicago Center
Thu 08:29:52 PM 41.0367 -88.8819 74° East 341 392 13,400 -1,742 Descending Chicago Center
Thu 08:30:54 PM 41.0606 -88.7664 75° East 328 377 11,400 -1,645 Descending Chicago Center
Thu 08:31:56 PM 41.0875 -88.6567 72° East 318 366 10,000 -1,056 Descending Chicago Center
Thu 08:32:59 PM 41.1297 -88.5661 58° Northeast 298 343 9,200 -960 Descending Chicago Center
Thu 08:34:01 PM 41.2039 -88.4783 42° Northeast 299 344 8,000 -1,065 Descending Chicago Center
Thu 08:35:03 PM 41.2642 -88.4039 43° Northeast 298 343 7,000 -968 Descending Chicago Center
Thu 08:36:05 PM 41.3222 -88.3317 43° Northeast 291 335 6,000 -484 Descending Chicago Center
Thu 08:37:07 PM 41.3792 -88.2608 43° Northeast 284 327 6,000 -484 Level Chicago Center
Thu 08:38:09 PM 41.4356 -88.1900 43° Northeast 279 321 5,000 -823 Descending Chicago Center
Thu 08:39:11 PM 41.4919 -88.1211 42° Northeast 273 314 4,300 -484 Descending Chicago Center
Thu 08:40:13 PM 41.5414 -88.0594 43° Northeast 254 292 4,000 -145 Descending Chicago Center
Thu 08:41:15 PM 41.5672 -87.9872 64° Northeast 207 238 4,000  Level Chicago Center
Thu 08:42:17 PM 41.6061 -87.9606 27° Northeast 201 231 4,000 -194 Level Chicago Center
Thu 08:43:19 PM 41.6444 -87.9375 24° Northeast 180 207 3,600 -480 Descending Chicago Center
Thu 08:44:22 PM 41.6422 -87.8936 94° East 167 192 3,000 -409 Descending Chicago Center
Thu 08:44:47 PM 41.6333 -87.8667 114° Southeast 151 174 3,000  Level Chicago TRACON
Thu 08:45:24 PM 41.6131 -87.8519 152° Southeast 157 181 3,000  Level Chicago Center
Thu 08:46:26 PM 41.5697 -87.8658 193° South 184 212 3,000  Level Chicago Center
Thu 08:47:28 PM 41.5894 -87.9344 291° West 185 213 3,000  Level Chicago Center
Thu 08:48:30 PM 41.6358 -87.9319 North 172 198 3,000  Level Chicago Center
Thu 08:49:32 PM 41.6733 -87.8939 37° Northeast 177 204 3,000 -194 Level Chicago Center
Thu 08:50:34 PM 41.7047 -87.8536 44° Northeast 166 191 2,600 -532 Descending Chicago Center
Thu 08:51:36 PM 41.7344 -87.8158 43° Northeast 157 181 1,900 -726 Descending Chicago Center
Thu 08:52:38 PM 41.7653 -87.7783 42° Northeast 139 160 1,100 -484 Descending Chicago Center
Thu 08:53:40 PM 41.7903 -87.7469 43° Northeast 136 157 900 -194 Descending Chicago Center

Login

Don't have an account? Register now (free) for customized features, flight alerts, and more!